SCTE 261700Z 36006KT 320V020 9999 FEW013 BKN040 OVC063 12/08 Q1016 NOSIG